sensor_id;sensor_type;location;lat;lon;timestamp;pressure;altitude;pressure_sealevel;temperature;humidity
13235;BME280;6683;48.506;9.050;2022-11-15T00:02:42;97954.31;;;7.74;73.46
13235;BME280;6683;48.506;9.050;2022-11-15T00:05:45;97946.94;;;7.70;73.47
13235;BME280;6683;48.506;9.050;2022-11-15T00:08:49;97931.56;;;7.67;73.43
13235;BME280;6683;48.506;9.050;2022-11-15T00:11:51;97932.53;;;7.66;73.53
13235;BME280;6683;48.506;9.050;2022-11-15T00:14:53;97930.09;;;7.64;73.47
13235;BME280;6683;48.506;9.050;2022-11-15T00:17:56;97930.25;;;7.63;73.50
13235;BME280;6683;48.506;9.050;2022-11-15T00:21:05;97927.34;;;7.58;73.40
13235;BME280;6683;48.506;9.050;2022-11-15T00:24:09;97931.13;;;7.55;73.45
13235;BME280;6683;48.506;9.050;2022-11-15T00:27:12;97934.28;;;7.51;72.99
13235;BME280;6683;48.506;9.050;2022-11-15T00:30:14;97934.97;;;7.45;73.16
13235;BME280;6683;48.506;9.050;2022-11-15T00:33:17;97933.84;;;7.39;73.00
13235;BME280;6683;48.506;9.050;2022-11-15T00:36:19;97929.47;;;7.32;73.21
13235;BME280;6683;48.506;9.050;2022-11-15T00:39:23;97929.34;;;7.25;72.76
13235;BME280;6683;48.506;9.050;2022-11-15T00:42:25;97917.88;;;7.18;72.94
13235;BME280;6683;48.506;9.050;2022-11-15T00:45:27;97916.59;;;7.14;73.27
13235;BME280;6683;48.506;9.050;2022-11-15T00:48:30;97921.56;;;7.09;73.23
13235;BME280;6683;48.506;9.050;2022-11-15T00:51:33;97915.97;;;7.04;72.97
13235;BME280;6683;48.506;9.050;2022-11-15T00:54:37;97920.75;;;7.00;72.87
13235;BME280;6683;48.506;9.050;2022-11-15T00:57:39;97917.00;;;6.95;73.04
13235;BME280;6683;48.506;9.050;2022-11-15T01:00:41;97911.09;;;6.93;73.10
13235;BME280;6683;48.506;9.050;2022-11-15T01:03:44;97912.94;;;6.92;73.46
13235;BME280;6683;48.506;9.050;2022-11-15T01:06:46;97904.06;;;6.93;73.44
13235;BME280;6683;48.506;9.050;2022-11-15T01:09:50;97912.56;;;6.95;73.45
13235;BME280;6683;48.506;9.050;2022-11-15T01:12:53;97901.91;;;6.97;73.37
13235;BME280;6683;48.506;9.050;2022-11-15T01:15:55;97903.72;;;6.96;73.59
13235;BME280;6683;48.506;9.050;2022-11-15T01:18:57;97906.19;;;6.98;73.71
13235;BME280;6683;48.506;9.050;2022-11-15T01:22:00;97913.03;;;6.99;73.72
13235;BME280;6683;48.506;9.050;2022-11-15T01:25:04;97904.69;;;6.95;73.42
13235;BME280;6683;48.506;9.050;2022-11-15T01:28:07;97897.84;;;6.94;73.24
13235;BME280;6683;48.506;9.050;2022-11-15T01:31:13;97887.84;;;6.90;73.32
13235;BME280;6683;48.506;9.050;2022-11-15T01:34:17;97895.91;;;6.88;73.56
13235;BME280;6683;48.506;9.050;2022-11-15T01:37:19;97895.06;;;6.88;73.83
13235;BME280;6683;48.506;9.050;2022-11-15T01:40:23;97885.22;;;6.90;74.02
13235;BME280;6683;48.506;9.050;2022-11-15T01:43:27;97878.81;;;6.92;73.94
13235;BME280;6683;48.506;9.050;2022-11-15T01:46:34;97883.72;;;6.95;73.99
13235;BME280;6683;48.506;9.050;2022-11-15T01:49:40;97882.56;;;6.98;74.17
13235;BME280;6683;48.506;9.050;2022-11-15T01:52:44;97875.16;;;7.01;73.84
13235;BME280;6683;48.506;9.050;2022-11-15T01:55:48;97867.28;;;7.01;73.71
13235;BME280;6683;48.506;9.050;2022-11-15T01:58:51;97862.03;;;7.01;74.03
13235;BME280;6683;48.506;9.050;2022-11-15T02:01:55;97869.09;;;7.01;73.82
13235;BME280;6683;48.506;9.050;2022-11-15T02:04:58;97866.00;;;6.97;73.30
13235;BME280;6683;48.506;9.050;2022-11-15T02:08:01;97866.34;;;6.94;73.58
13235;BME280;6683;48.506;9.050;2022-11-15T02:11:08;97864.88;;;6.92;73.49
13235;BME280;6683;48.506;9.050;2022-11-15T02:14:11;97859.81;;;6.90;73.44
13235;BME280;6683;48.506;9.050;2022-11-15T02:17:42;97854.06;;;6.87;73.66
13235;BME280;6683;48.506;9.050;2022-11-15T02:21:02;97854.59;;;6.82;73.40
13235;BME280;6683;48.506;9.050;2022-11-15T02:28:27;97832.84;;;6.74;73.74
13235;BME280;6683;48.506;9.050;2022-11-15T02:31:41;97842.84;;;6.70;73.81
13235;BME280;6683;48.506;9.050;2022-11-15T02:34:54;97840.56;;;6.67;73.49
13235;BME280;6683;48.506;9.050;2022-11-15T02:38:06;97834.03;;;6.63;73.52
13235;BME280;6683;48.506;9.050;2022-11-15T02:41:16;97842.06;;;6.62;73.57
13235;BME280;6683;48.506;9.050;2022-11-15T02:44:25;97839.78;;;6.59;73.43
13235;BME280;6683;48.506;9.050;2022-11-15T02:47:31;97826.03;;;6.57;73.38
13235;BME280;6683;48.506;9.050;2022-11-15T02:50:36;97836.53;;;6.57;73.73
13235;BME280;6683;48.506;9.050;2022-11-15T02:53:38;97818.31;;;6.55;73.98
13235;BME280;6683;48.506;9.050;2022-11-15T02:56:41;97818.97;;;6.57;73.88
13235;BME280;6683;48.506;9.050;2022-11-15T03:00:04;97813.56;;;6.59;73.98
13235;BME280;6683;48.506;9.050;2022-11-15T03:03:46;97808.16;;;6.60;73.86
13235;BME280;6683;48.506;9.050;2022-11-15T03:06:59;97803.53;;;6.62;73.93
13235;BME280;6683;48.506;9.050;2022-11-15T03:10:06;97802.56;;;6.63;73.95
13235;BME280;6683;48.506;9.050;2022-11-15T03:13:21;97802.22;;;6.66;74.07
13235;BME280;6683;48.506;9.050;2022-11-15T03:16:30;97798.25;;;6.70;73.78
13235;BME280;6683;48.506;9.050;2022-11-15T03:19:42;97798.91;;;6.72;73.70
13235;BME280;6683;48.506;9.050;2022-11-15T03:22:47;97795.31;;;6.73;74.12
13235;BME280;6683;48.506;9.050;2022-11-15T03:25:53;97794.31;;;6.74;74.13
13235;BME280;6683;48.506;9.050;2022-11-15T03:29:02;97792.31;;;6.76;74.00
13235;BME280;6683;48.506;9.050;2022-11-15T03:32:11;97794.16;;;6.76;73.91
13235;BME280;6683;48.506;9.050;2022-11-15T03:35:18;97791.53;;;6.76;73.93
13235;BME280;6683;48.506;9.050;2022-11-15T03:38:25;97790.53;;;6.77;73.96
13235;BME280;6683;48.506;9.050;2022-11-15T03:41:37;97780.41;;;6.74;73.93
13235;BME280;6683;48.506;9.050;2022-11-15T03:44:49;97776.75;;;6.75;73.76
13235;BME280;6683;48.506;9.050;2022-11-15T03:47:59;97775.94;;;6.74;73.69
13235;BME280;6683;48.506;9.050;2022-11-15T03:51:05;97775.94;;;6.74;73.76
13235;BME280;6683;48.506;9.050;2022-11-15T03:54:07;97771.53;;;6.75;73.71
13235;BME280;6683;48.506;9.050;2022-11-15T03:57:10;97771.06;;;6.71;73.70
13235;BME280;6683;48.506;9.050;2022-11-15T04:00:13;97778.94;;;6.71;73.49
13235;BME280;6683;48.506;9.050;2022-11-15T04:03:15;97767.78;;;6.69;73.69
13235;BME280;6683;48.506;9.050;2022-11-15T04:06:19;97767.94;;;6.68;73.42
13235;BME280;6683;48.506;9.050;2022-11-15T04:09:21;97753.03;;;6.68;73.82
13235;BME280;6683;48.506;9.050;2022-11-15T04:12:23;97764.16;;;6.70;73.73
13235;BME280;6683;48.506;9.050;2022-11-15T04:15:32;97759.56;;;6.72;73.87
13235;BME280;6683;48.506;9.050;2022-11-15T04:18:35;97759.22;;;6.75;74.19
13235;BME280;6683;48.506;9.050;2022-11-15T04:21:38;97765.13;;;6.77;74.23
13235;BME280;6683;48.506;9.050;2022-11-15T04:24:58;97771.66;;;6.81;73.95
13235;BME280;6683;48.506;9.050;2022-11-15T04:28:00;97770.50;;;6.84;74.03
13235;BME280;6683;48.506;9.050;2022-11-15T04:31:02;97761.63;;;6.85;73.79
13235;BME280;6683;48.506;9.050;2022-11-15T04:34:05;97758.03;;;6.86;74.02
13235;BME280;6683;48.506;9.050;2022-11-15T04:37:09;97753.41;;;6.88;74.19
13235;BME280;6683;48.506;9.050;2022-11-15T04:40:14;97751.78;;;6.87;74.09
13235;BME280;6683;48.506;9.050;2022-11-15T04:43:17;97755.22;;;6.87;74.00
13235;BME280;6683;48.506;9.050;2022-11-15T04:46:19;97759.63;;;6.87;74.01
13235;BME280;6683;48.506;9.050;2022-11-15T04:49:21;97746.72;;;6.85;73.99
13235;BME280;6683;48.506;9.050;2022-11-15T04:52:25;97744.41;;;6.82;73.58
13235;BME280;6683;48.506;9.050;2022-11-15T04:55:27;97749.66;;;6.82;73.79
13235;BME280;6683;48.506;9.050;2022-11-15T04:58:29;97737.56;;;6.81;73.81
13235;BME280;6683;48.506;9.050;2022-11-15T05:01:32;97730.31;;;6.83;73.87
13235;BME280;6683;48.506;9.050;2022-11-15T05:04:34;97732.13;;;6.83;73.75
13235;BME280;6683;48.506;9.050;2022-11-15T05:07:37;97738.19;;;6.83;73.77
13235;BME280;6683;48.506;9.050;2022-11-15T05:10:39;97748.69;;;6.83;74.08
13235;BME280;6683;48.506;9.050;2022-11-15T05:13:42;97731.78;;;6.86;74.38
13235;BME280;6683;48.506;9.050;2022-11-15T05:16:44;97733.06;;;6.90;74.03
13235;BME280;6683;48.506;9.050;2022-11-15T05:19:47;97728.47;;;6.92;74.05
13235;BME280;6683;48.506;9.050;2022-11-15T05:22:50;97727.47;;;6.93;74.04
13235;BME280;6683;48.506;9.050;2022-11-15T05:25:53;97721.06;;;6.95;74.15
13235;BME280;6683;48.506;9.050;2022-11-15T05:28:57;97716.63;;;6.96;73.73
13235;BME280;6683;48.506;9.050;2022-11-15T05:32:00;97716.00;;;6.94;73.95
13235;BME280;6683;48.506;9.050;2022-11-15T05:35:03;97723.69;;;6.95;73.81
13235;BME280;6683;48.506;9.050;2022-11-15T05:38:09;97716.81;;;6.94;73.65
13235;BME280;6683;48.506;9.050;2022-11-15T05:41:12;97700.44;;;6.92;73.78
13235;BME280;6683;48.506;9.050;2022-11-15T05:44:18;97700.44;;;6.92;73.94
13235;BME280;6683;48.506;9.050;2022-11-15T05:47:25;97705.84;;;6.91;73.72
13235;BME280;6683;48.506;9.050;2022-11-15T05:50:29;97708.47;;;6.91;73.96
13235;BME280;6683;48.506;9.050;2022-11-15T05:53:35;97696.69;;;6.87;73.63
13235;BME280;6683;48.506;9.050;2022-11-15T05:56:38;97701.09;;;6.86;73.71
13235;BME280;6683;48.506;9.050;2022-11-15T05:59:41;97706.53;;;6.85;73.84
13235;BME280;6683;48.506;9.050;2022-11-15T06:02:44;97709.16;;;6.85;74.08
13235;BME280;6683;48.506;9.050;2022-11-15T06:05:46;97704.44;;;6.80;73.66
13235;BME280;6683;48.506;9.050;2022-11-15T06:08:50;97705.25;;;6.81;73.99
13235;BME280;6683;48.506;9.050;2022-11-15T06:11:52;97705.06;;;6.82;74.07
13235;BME280;6683;48.506;9.050;2022-11-15T06:14:54;97702.44;;;6.82;73.80
13235;BME280;6683;48.506;9.050;2022-11-15T06:17:57;97703.28;;;6.83;74.14
13235;BME280;6683;48.506;9.050;2022-11-15T06:21:00;97706.34;;;6.86;74.33
13235;BME280;6683;48.506;9.050;2022-11-15T06:24:05;97709.28;;;6.91;74.31
13235;BME280;6683;48.506;9.050;2022-11-15T06:27:08;97714.97;;;6.95;74.67
13235;BME280;6683;48.506;9.050;2022-11-15T06:30:11;97714.47;;;6.99;74.27
13235;BME280;6683;48.506;9.050;2022-11-15T06:33:13;97719.81;;;7.06;74.67
13235;BME280;6683;48.506;9.050;2022-11-15T06:36:16;97720.91;;;7.11;74.67
13235;BME280;6683;48.506;9.050;2022-11-15T06:39:20;97716.16;;;7.15;74.48
13235;BME280;6683;48.506;9.050;2022-11-15T06:42:22;97721.69;;;7.20;74.23
13235;BME280;6683;48.506;9.050;2022-11-15T06:45:24;97723.97;;;7.23;74.42
13235;BME280;6683;48.506;9.050;2022-11-15T06:48:27;97721.97;;;7.25;74.17
13235;BME280;6683;48.506;9.050;2022-11-15T06:51:30;97719.97;;;7.27;74.22
13235;BME280;6683;48.506;9.050;2022-11-15T06:54:34;97714.41;;;7.30;74.31
13235;BME280;6683;48.506;9.050;2022-11-15T06:57:36;97703.34;;;7.35;74.44
13235;BME280;6683;48.506;9.050;2022-11-15T07:00:39;97713.94;;;7.41;74.65
13235;BME280;6683;48.506;9.050;2022-11-15T07:03:42;97714.06;;;7.48;74.46
13235;BME280;6683;48.506;9.050;2022-11-15T07:06:46;97731.09;;;7.52;74.37
13235;BME280;6683;48.506;9.050;2022-11-15T07:09:51;97722.69;;;7.56;74.68
13235;BME280;6683;48.506;9.050;2022-11-15T07:12:54;97735.91;;;7.63;74.37
13235;BME280;6683;48.506;9.050;2022-11-15T07:15:57;97718.59;;;7.68;74.36
13235;BME280;6683;48.506;9.050;2022-11-15T07:18:59;97719.53;;;7.75;74.45
13235;BME280;6683;48.506;9.050;2022-11-15T07:22:02;97716.00;;;7.83;74.30
13235;BME280;6683;48.506;9.050;2022-11-15T07:25:07;97710.63;;;7.91;74.56
13235;BME280;6683;48.506;9.050;2022-11-15T07:28:10;97713.81;;;8.01;74.19
13235;BME280;6683;48.506;9.050;2022-11-15T07:31:13;97706.66;;;8.09;74.22
13235;BME280;6683;48.506;9.050;2022-11-15T07:34:16;97704.72;;;8.18;74.52
13235;BME280;6683;48.506;9.050;2022-11-15T07:37:18;97710.75;;;8.27;74.03
13235;BME280;6683;48.506;9.050;2022-11-15T07:40:22;97706.19;;;8.35;74.05
13235;BME280;6683;48.506;9.050;2022-11-15T07:43:26;97701.84;;;8.42;73.65
13235;BME280;6683;48.506;9.050;2022-11-15T07:46:28;97703.53;;;8.50;73.98
13235;BME280;6683;48.506;9.050;2022-11-15T07:49:31;97697.53;;;8.56;73.80
13235;BME280;6683;48.506;9.050;2022-11-15T07:52:33;97705.94;;;8.66;73.73
13235;BME280;6683;48.506;9.050;2022-11-15T07:55:39;97689.59;;;8.70;73.65
13235;BME280;6683;48.506;9.050;2022-11-15T07:58:42;97688.69;;;8.78;73.59
13235;BME280;6683;48.506;9.050;2022-11-15T08:01:45;97692.38;;;8.83;73.67
13235;BME280;6683;48.506;9.050;2022-11-15T08:04:47;97695.44;;;8.87;73.64
13235;BME280;6683;48.506;9.050;2022-11-15T08:07:50;97691.63;;;8.90;73.34
13235;BME280;6683;48.506;9.050;2022-11-15T08:10:53;97691.00;;;8.88;73.66
13235;BME280;6683;48.506;9.050;2022-11-15T08:13:56;97695.88;;;8.91;73.67
13235;BME280;6683;48.506;9.050;2022-11-15T08:16:58;97696.94;;;8.96;74.13
13235;BME280;6683;48.506;9.050;2022-11-15T08:20:01;97692.72;;;9.02;74.08
13235;BME280;6683;48.506;9.050;2022-11-15T08:23:05;97698.06;;;9.08;73.84
13235;BME280;6683;48.506;9.050;2022-11-15T08:26:10;97691.41;;;9.12;74.09
13235;BME280;6683;48.506;9.050;2022-11-15T08:29:12;97692.88;;;9.15;74.00
13235;BME280;6683;48.506;9.050;2022-11-15T08:32:14;97687.41;;;9.16;74.04
13235;BME280;6683;48.506;9.050;2022-11-15T08:35:19;97672.69;;;9.22;74.52
13235;BME280;6683;48.506;9.050;2022-11-15T08:38:22;97673.97;;;9.32;74.44
13235;BME280;6683;48.506;9.050;2022-11-15T08:41:28;97671.81;;;9.42;74.79
13235;BME280;6683;48.506;9.050;2022-11-15T08:44:32;97673.72;;;9.55;74.42
13235;BME280;6683;48.506;9.050;2022-11-15T08:47:35;97674.41;;;9.63;74.18
13235;BME280;6683;48.506;9.050;2022-11-15T08:50:37;97662.50;;;9.74;74.50
13235;BME280;6683;48.506;9.050;2022-11-15T08:53:40;97664.97;;;9.82;74.51
13235;BME280;6683;48.506;9.050;2022-11-15T08:56:44;97658.72;;;9.90;74.37
13235;BME280;6683;48.506;9.050;2022-11-15T08:59:46;97655.97;;;10.04;74.73
13235;BME280;6683;48.506;9.050;2022-11-15T09:02:48;97654.41;;;10.16;74.79
13235;BME280;6683;48.506;9.050;2022-11-15T09:05:55;97650.41;;;10.27;74.64
13235;BME280;6683;48.506;9.050;2022-11-15T09:08:58;97640.09;;;10.38;74.47
13235;BME280;6683;48.506;9.050;2022-11-15T09:12:05;97649.88;;;10.51;74.94
13235;BME280;6683;48.506;9.050;2022-11-15T09:15:09;97636.91;;;10.63;74.76
13235;BME280;6683;48.506;9.050;2022-11-15T09:18:11;97645.25;;;10.79;74.31
13235;BME280;6683;48.506;9.050;2022-11-15T09:21:13;97642.44;;;10.94;74.31
13235;BME280;6683;48.506;9.050;2022-11-15T09:24:16;97650.38;;;11.07;74.45
13235;BME280;6683;48.506;9.050;2022-11-15T09:27:20;97640.22;;;11.17;74.20
13235;BME280;6683;48.506;9.050;2022-11-15T09:30:22;97636.16;;;11.27;74.06
13235;BME280;6683;48.506;9.050;2022-11-15T09:33:25;97640.41;;;11.35;74.17
13235;BME280;6683;48.506;9.050;2022-11-15T09:36:27;97642.22;;;11.41;74.01
13235;BME280;6683;48.506;9.050;2022-11-15T09:39:30;97647.09;;;11.44;73.91
13235;BME280;6683;48.506;9.050;2022-11-15T09:42:56;97641.59;;;11.46;74.28
13235;BME280;6683;48.506;9.050;2022-11-15T09:46:13;97630.44;;;11.50;74.44
13235;BME280;6683;48.506;9.050;2022-11-15T09:49:18;97631.63;;;11.61;74.46
13235;BME280;6683;48.506;9.050;2022-11-15T09:52:21;97630.19;;;11.65;74.28
13235;BME280;6683;48.506;9.050;2022-11-15T09:55:34;97629.81;;;11.68;74.32
13235;BME280;6683;48.506;9.050;2022-11-15T09:58:48;97627.97;;;11.75;74.46
13235;BME280;6683;48.506;9.050;2022-11-15T10:01:59;97614.13;;;11.79;74.27
13235;BME280;6683;48.506;9.050;2022-11-15T10:05:09;97612.88;;;11.88;73.92
13235;BME280;6683;48.506;9.050;2022-11-15T10:08:45;97607.19;;;11.85;73.68
13235;BME280;6683;48.506;9.050;2022-11-15T10:11:48;97599.06;;;11.86;73.83
13235;BME280;6683;48.506;9.050;2022-11-15T10:15:02;97608.00;;;11.85;74.10
13235;BME280;6683;48.506;9.050;2022-11-15T10:18:18;97593.34;;;11.89;74.60
13235;BME280;6683;48.506;9.050;2022-11-15T10:21:25;97587.22;;;11.95;74.30
13235;BME280;6683;48.506;9.050;2022-11-15T10:24:40;97588.00;;;12.02;74.42
13235;BME280;6683;48.506;9.050;2022-11-15T10:27:46;97584.09;;;12.12;74.74
13235;BME280;6683;48.506;9.050;2022-11-15T10:30:55;97577.38;;;12.16;74.52
13235;BME280;6683;48.506;9.050;2022-11-15T10:34:12;97571.22;;;12.22;74.79
13235;BME280;6683;48.506;9.050;2022-11-15T10:37:18;97572.41;;;12.32;74.84
13235;BME280;6683;48.506;9.050;2022-11-15T10:40:28;97571.31;;;12.40;74.74
13235;BME280;6683;48.506;9.050;2022-11-15T10:43:31;97569.47;;;12.47;74.73
13235;BME280;6683;48.506;9.050;2022-11-15T10:46:37;97567.78;;;12.52;74.83
13235;BME280;6683;48.506;9.050;2022-11-15T10:50:04;97565.91;;;12.59;75.01
13235;BME280;6683;48.506;9.050;2022-11-15T10:53:18;97561.16;;;12.68;75.11
13235;BME280;6683;48.506;9.050;2022-11-15T10:56:25;97559.06;;;12.76;74.76
13235;BME280;6683;48.506;9.050;2022-11-15T10:59:31;97563.28;;;12.84;74.95
13235;BME280;6683;48.506;9.050;2022-11-15T11:02:38;97567.28;;;12.93;74.61
13235;BME280;6683;48.506;9.050;2022-11-15T11:05:40;97564.56;;;13.00;74.65
13235;BME280;6683;48.506;9.050;2022-11-15T11:09:04;97552.72;;;13.02;74.74
13235;BME280;6683;48.506;9.050;2022-11-15T11:12:10;97552.69;;;13.09;74.56
13235;BME280;6683;48.506;9.050;2022-11-15T11:15:15;97534.53;;;13.12;74.51
13235;BME280;6683;48.506;9.050;2022-11-15T11:18:27;97532.63;;;13.19;74.66
13235;BME280;6683;48.506;9.050;2022-11-15T11:21:42;97531.16;;;13.23;74.48
13235;BME280;6683;48.506;9.050;2022-11-15T11:24:55;97529.47;;;13.29;74.63
13235;BME280;6683;48.506;9.050;2022-11-15T11:28:14;97532.88;;;13.36;74.82
13235;BME280;6683;48.506;9.050;2022-11-15T11:31:37;97529.91;;;13.44;74.81
13235;BME280;6683;48.506;9.050;2022-11-15T11:34:58;97521.66;;;13.52;74.87
13235;BME280;6683;48.506;9.050;2022-11-15T11:38:34;97513.66;;;13.58;74.76
13235;BME280;6683;48.506;9.050;2022-11-15T11:41:51;97503.78;;;13.66;74.78
13235;BME280;6683;48.506;9.050;2022-11-15T11:45:02;97503.47;;;13.74;74.85
13235;BME280;6683;48.506;9.050;2022-11-15T11:48:13;97494.38;;;13.81;74.80
13235;BME280;6683;48.506;9.050;2022-11-15T11:51:22;97485.75;;;13.86;74.63
13235;BME280;6683;48.506;9.050;2022-11-15T11:54:32;97488.00;;;13.89;74.66
13235;BME280;6683;48.506;9.050;2022-11-15T11:57:45;97482.00;;;13.93;74.79
13235;BME280;6683;48.506;9.050;2022-11-15T12:00:55;97469.69;;;13.99;74.68
13235;BME280;6683;48.506;9.050;2022-11-15T12:04:08;97475.72;;;14.06;74.44
13235;BME280;6683;48.506;9.050;2022-11-15T12:07:19;97472.25;;;14.05;74.13
13235;BME280;6683;48.506;9.050;2022-11-15T12:10:28;97461.63;;;14.05;74.00
13235;BME280;6683;48.506;9.050;2022-11-15T12:13:33;97464.28;;;14.05;73.95
13235;BME280;6683;48.506;9.050;2022-11-15T12:16:42;97456.31;;;14.05;74.21
13235;BME280;6683;48.506;9.050;2022-11-15T12:19:45;97457.72;;;14.08;74.24
13235;BME280;6683;48.506;9.050;2022-11-15T12:22:54;97457.41;;;14.16;74.55
13235;BME280;6683;48.506;9.050;2022-11-15T12:26:03;97458.91;;;14.23;74.45
13235;BME280;6683;48.506;9.050;2022-11-15T12:29:15;97453.53;;;14.30;74.45
13235;BME280;6683;48.506;9.050;2022-11-15T12:32:27;97452.03;;;14.34;74.19
13235;BME280;6683;48.506;9.050;2022-11-15T12:35:37;97445.47;;;14.36;74.02
13235;BME280;6683;48.506;9.050;2022-11-15T12:39:07;97446.88;;;14.39;74.29
13235;BME280;6683;48.506;9.050;2022-11-15T12:42:36;97435.53;;;14.43;74.58
13235;BME280;6683;48.506;9.050;2022-11-15T12:45:43;97439.13;;;14.49;74.13
13235;BME280;6683;48.506;9.050;2022-11-15T12:48:55;97430.50;;;14.54;74.51
13235;BME280;6683;48.506;9.050;2022-11-15T12:52:09;97427.94;;;14.59;74.31
13235;BME280;6683;48.506;9.050;2022-11-15T12:55:32;97419.28;;;14.63;74.19
13235;BME280;6683;48.506;9.050;2022-11-15T12:58:42;97428.06;;;14.64;73.95
13235;BME280;6683;48.506;9.050;2022-11-15T13:02:01;97423.66;;;14.69;74.11
13235;BME280;6683;48.506;9.050;2022-11-15T13:05:52;97420.09;;;14.75;74.25
13235;BME280;6683;48.506;9.050;2022-11-15T13:08:57;97409.81;;;14.79;73.88
13235;BME280;6683;48.506;9.050;2022-11-15T13:12:01;97403.78;;;14.83;74.01
13235;BME280;6683;48.506;9.050;2022-11-15T13:15:35;97398.84;;;14.87;73.95
13235;BME280;6683;48.506;9.050;2022-11-15T13:18:40;97391.19;;;14.90;73.70
13235;BME280;6683;48.506;9.050;2022-11-15T13:21:49;97389.13;;;14.92;73.96
13235;BME280;6683;48.506;9.050;2022-11-15T13:25:16;97385.19;;;14.95;73.76
13235;BME280;6683;48.506;9.050;2022-11-15T13:28:29;97374.91;;;14.98;73.67
13235;BME280;6683;48.506;9.050;2022-11-15T13:31:37;97373.38;;;15.02;73.76
13235;BME280;6683;48.506;9.050;2022-11-15T13:34:44;97361.25;;;15.06;73.39
13235;BME280;6683;48.506;9.050;2022-11-15T13:37:49;97364.25;;;15.10;73.45
13235;BME280;6683;48.506;9.050;2022-11-15T13:40:51;97348.63;;;15.13;73.46
13235;BME280;6683;48.506;9.050;2022-11-15T13:43:58;97343.06;;;15.15;73.51
13235;BME280;6683;48.506;9.050;2022-11-15T13:47:04;97334.06;;;15.16;73.32
13235;BME280;6683;48.506;9.050;2022-11-15T13:50:11;97335.91;;;15.15;73.33
13235;BME280;6683;48.506;9.050;2022-11-15T13:53:14;97323.66;;;15.14;73.12
13235;BME280;6683;48.506;9.050;2022-11-15T13:56:17;97322.63;;;15.15;73.17
13235;BME280;6683;48.506;9.050;2022-11-15T13:59:25;97313.50;;;15.11;73.38
13235;BME280;6683;48.506;9.050;2022-11-15T14:02:35;97309.78;;;15.12;73.40
13235;BME280;6683;48.506;9.050;2022-11-15T14:05:38;97303.78;;;15.17;73.55
13235;BME280;6683;48.506;9.050;2022-11-15T14:08:41;97310.72;;;15.18;73.33
13235;BME280;6683;48.506;9.050;2022-11-15T14:11:52;97302.50;;;15.19;73.50
13235;BME280;6683;48.506;9.050;2022-11-15T14:14:57;97296.72;;;15.23;73.40
13235;BME280;6683;48.506;9.050;2022-11-15T14:17:59;97286.88;;;15.23;73.27
13235;BME280;6683;48.506;9.050;2022-11-15T14:21:06;97288.75;;;15.23;73.41
13235;BME280;6683;48.506;9.050;2022-11-15T14:24:15;97288.75;;;15.23;73.59
13235;BME280;6683;48.506;9.050;2022-11-15T14:27:22;97281.81;;;15.21;73.35
13235;BME280;6683;48.506;9.050;2022-11-15T14:30:26;97281.81;;;15.21;73.08
13235;BME280;6683;48.506;9.050;2022-11-15T14:33:30;97281.22;;;15.19;72.96
13235;BME280;6683;48.506;9.050;2022-11-15T14:36:34;97272.69;;;15.17;72.96
13235;BME280;6683;48.506;9.050;2022-11-15T14:39:36;97272.13;;;15.15;73.15
13235;BME280;6683;48.506;9.050;2022-11-15T14:42:39;97272.38;;;15.14;72.96
13235;BME280;6683;48.506;9.050;2022-11-15T14:45:44;97268.31;;;15.11;72.76
13235;BME280;6683;48.506;9.050;2022-11-15T14:48:46;97258.72;;;15.10;72.95
13235;BME280;6683;48.506;9.050;2022-11-15T14:51:49;97251.50;;;15.06;72.78
13235;BME280;6683;48.506;9.050;2022-11-15T14:54:51;97239.13;;;15.00;72.88
13235;BME280;6683;48.506;9.050;2022-11-15T14:57:54;97246.78;;;14.96;72.86
13235;BME280;6683;48.506;9.050;2022-11-15T15:00:58;97250.38;;;14.90;72.81
13235;BME280;6683;48.506;9.050;2022-11-15T15:04:01;97246.00;;;14.84;72.71
13235;BME280;6683;48.506;9.050;2022-11-15T15:07:03;97246.72;;;14.80;73.00
13235;BME280;6683;48.506;9.050;2022-11-15T15:10:05;97250.88;;;14.76;73.07
13235;BME280;6683;48.506;9.050;2022-11-15T15:13:17;97242.03;;;14.70;73.09
13235;BME280;6683;48.506;9.050;2022-11-15T15:16:21;97232.41;;;14.69;73.09
13235;BME280;6683;48.506;9.050;2022-11-15T15:19:24;97230.25;;;14.66;73.09
13235;BME280;6683;48.506;9.050;2022-11-15T15:22:28;97232.34;;;14.64;73.08
13235;BME280;6683;48.506;9.050;2022-11-15T15:25:34;97227.25;;;14.63;73.29
13235;BME280;6683;48.506;9.050;2022-11-15T15:28:36;97220.34;;;14.62;73.45
13235;BME280;6683;48.506;9.050;2022-11-15T15:31:41;97214.44;;;14.60;73.48
13235;BME280;6683;48.506;9.050;2022-11-15T15:34:43;97217.31;;;14.58;73.52
13235;BME280;6683;48.506;9.050;2022-11-15T15:37:48;97209.84;;;14.55;73.44
13235;BME280;6683;48.506;9.050;2022-11-15T15:40:50;97204.97;;;14.52;73.45
13235;BME280;6683;48.506;9.050;2022-11-15T15:43:53;97200.16;;;14.49;73.56
13235;BME280;6683;48.506;9.050;2022-11-15T15:46:57;97198.78;;;14.47;73.55
13235;BME280;6683;48.506;9.050;2022-11-15T15:49:59;97199.84;;;14.46;73.66
13235;BME280;6683;48.506;9.050;2022-11-15T15:53:03;97197.88;;;14.41;73.70
13235;BME280;6683;48.506;9.050;2022-11-15T15:56:06;97188.28;;;14.40;73.68
13235;BME280;6683;48.506;9.050;2022-11-15T15:59:09;97177.09;;;14.38;73.74
13235;BME280;6683;48.506;9.050;2022-11-15T16:02:13;97176.28;;;14.37;73.57
13235;BME280;6683;48.506;9.050;2022-11-15T16:05:15;97172.28;;;14.35;73.64
13235;BME280;6683;48.506;9.050;2022-11-15T16:08:20;97164.75;;;14.32;73.66
13235;BME280;6683;48.506;9.050;2022-11-15T16:11:22;97158.88;;;14.30;73.84
13235;BME280;6683;48.506;9.050;2022-11-15T16:14:24;97161.53;;;14.30;73.94
13235;BME280;6683;48.506;9.050;2022-11-15T16:17:31;97157.25;;;14.29;74.01
13235;BME280;6683;48.506;9.050;2022-11-15T16:20:38;97146.03;;;14.27;73.96
13235;BME280;6683;48.506;9.050;2022-11-15T16:23:42;97137.28;;;14.26;73.88
13235;BME280;6683;48.506;9.050;2022-11-15T16:26:45;97134.06;;;14.24;73.74
13235;BME280;6683;48.506;9.050;2022-11-15T16:29:49;97125.53;;;14.22;73.85
13235;BME280;6683;48.506;9.050;2022-11-15T16:32:53;97126.00;;;14.19;73.67
13235;BME280;6683;48.506;9.050;2022-11-15T16:35:55;97125.19;;;14.19;73.77
13235;BME280;6683;48.506;9.050;2022-11-15T16:38:58;97133.63;;;14.16;73.77
13235;BME280;6683;48.506;9.050;2022-11-15T16:42:01;97126.34;;;14.11;73.58
13235;BME280;6683;48.506;9.050;2022-11-15T16:45:04;97131.56;;;14.06;73.87
13235;BME280;6683;48.506;9.050;2022-11-15T16:48:21;97127.75;;;14.02;73.68
13235;BME280;6683;48.506;9.050;2022-11-15T16:51:23;97124.78;;;13.99;73.78
13235;BME280;6683;48.506;9.050;2022-11-15T16:54:26;97125.00;;;13.97;74.00